Time;durP1;ratioP1;P1;durP2;ratioP2;P2;SDS_P1;SDS_P2;PMS_P1;PMS_P2;Temp;Humidity;BMP_temperature;BMP_pressure;BME280_temperature;BME280_humidity;BME280_pressure;Samples;Min_cycle;Max_cycle;Signal;HPM_P1;HPM_P2
2022/10/20 00:00:39;;;;;;;;;;;20.70;51.80;;;;;;8363981;28;19917;-46
2022/10/20 00:04:40;;;;;;;;;;;20.70;51.90;;;;;;8364201;28;19921;-44
2022/10/20 00:08:41;;;;;;;;;;;20.70;51.80;;;;;;8364108;28;19932;-45
2022/10/20 00:12:41;;;;;;;;;;;20.70;51.90;;;;;;8363784;28;19916;-44
2022/10/20 00:16:42;;;;;;;;;;;20.70;51.90;;;;;;8364300;28;20008;-43
2022/10/20 00:20:43;;;;;;;;;;;20.70;51.90;;;;;;8363895;28;19921;-44
2022/10/20 00:24:43;;;;;;;;;;;20.70;51.90;;;;;;8363377;28;19959;-44
2022/10/20 00:28:44;;;;;;;;;;;20.70;51.90;;;;;;8363635;28;19924;-43
2022/10/20 00:32:46;;;;;;;;;;;20.70;51.90;;;;;;8363836;28;20297;-43
2022/10/20 00:36:46;;;;;;;;;;;20.70;51.90;;;;;;8363434;28;19916;-43
2022/10/20 00:40:47;;;;;;;;;;;20.60;51.90;;;;;;8362670;28;19939;-43
2022/10/20 00:44:55;;;;;;;;;;;20.70;51.90;;;;;;8363016;28;20015;-43
2022/10/20 00:48:58;;;;;;;;;;;20.60;51.90;;;;;;8363305;28;19929;-44
2022/10/20 00:53:00;;;;;;;;;;;20.60;51.90;;;;;;8363337;28;20062;-43
2022/10/20 00:57:00;;;;;;;;;;;20.70;51.90;;;;;;8362982;28;19913;-43
2022/10/20 01:01:01;;;;;;;;;;;20.70;51.90;;;;;;8363400;28;20278;-43
2022/10/20 01:05:02;;;;;;;;;;;20.60;51.90;;;;;;8362076;28;19927;-42
2022/10/20 01:09:02;;;;;;;;;;;20.60;51.80;;;;;;8362492;28;19928;-44
2022/10/20 01:13:10;;;;;;;;;;;20.60;51.80;;;;;;8362926;28;19912;-44
2022/10/20 01:17:20;;;;;;;;;;;20.60;51.90;;;;;;8363269;28;19952;-43
2022/10/20 01:21:32;;;;;;;;;;;20.60;51.90;;;;;;8362414;28;20436;-43
2022/10/20 01:25:52;;;;;;;;;;;20.60;51.90;;;;;;8362759;28;19917;-43
2022/10/20 01:30:09;;;;;;;;;;;20.60;51.80;;;;;;8362348;28;19974;-43
2022/10/20 01:34:19;;;;;;;;;;;20.60;51.90;;;;;;8362693;28;20255;-43
2022/10/20 01:38:22;;;;;;;;;;;20.60;51.90;;;;;;8362668;28;20328;-44
2022/10/20 01:42:24;;;;;;;;;;;20.60;51.90;;;;;;8362424;28;20259;-46
2022/10/20 01:46:25;;;;;;;;;;;20.60;51.90;;;;;;8362496;28;19917;-44
2022/10/20 01:50:26;;;;;;;;;;;20.60;51.90;;;;;;8365139;28;19925;-43
2022/10/20 01:54:27;;;;;;;;;;;20.60;51.90;;;;;;8368010;28;19917;-44
2022/10/20 01:58:28;;;;;;;;;;;20.60;51.90;;;;;;8368324;28;19920;-44
2022/10/20 02:02:36;;;;;;;;;;;20.60;51.90;;;;;;8368614;28;19916;-43
2022/10/20 02:06:57;;;;;;;;;;;20.60;51.90;;;;;;8367551;28;19925;-45
2022/10/20 02:10:59;;;;;;;;;;;20.60;51.90;;;;;;8368137;28;19932;-43
2022/10/20 02:14:59;;;;;;;;;;;20.60;51.90;;;;;;8366093;28;19916;-43
2022/10/20 02:19:00;;;;;;;;;;;20.60;51.90;;;;;;8368217;28;19924;-44
2022/10/20 02:23:03;;;;;;;;;;;20.60;51.90;;;;;;8368003;28;19913;-44
2022/10/20 02:27:09;;;;;;;;;;;20.60;51.90;;;;;;8367103;28;19923;-43
2022/10/20 02:31:10;;;;;;;;;;;20.60;51.90;;;;;;8367555;28;19920;-43
2022/10/20 02:35:13;;;;;;;;;;;20.60;51.90;;;;;;8367446;28;19939;-45
2022/10/20 02:39:13;;;;;;;;;;;20.60;51.90;;;;;;8366651;28;19917;-43
2022/10/20 02:43:14;;;;;;;;;;;20.60;51.90;;;;;;8367132;28;20458;-44
2022/10/20 02:47:14;;;;;;;;;;;20.50;51.90;;;;;;8366923;28;20298;-43
2022/10/20 02:51:16;;;;;;;;;;;20.60;52.00;;;;;;8366242;28;20011;-45
2022/10/20 02:55:16;;;;;;;;;;;20.60;52.00;;;;;;8366598;28;19948;-44
2022/10/20 02:59:17;;;;;;;;;;;20.60;52.00;;;;;;8366515;28;19939;-44
2022/10/20 03:03:17;;;;;;;;;;;20.60;51.90;;;;;;8365098;28;19974;-43
2022/10/20 03:07:18;;;;;;;;;;;20.50;51.90;;;;;;8366164;28;19925;-44
2022/10/20 03:11:18;;;;;;;;;;;20.50;51.90;;;;;;8366260;28;19917;-43
2022/10/20 03:15:19;;;;;;;;;;;20.50;51.90;;;;;;8365655;28;19999;-43
2022/10/20 03:19:19;;;;;;;;;;;20.50;51.90;;;;;;8366208;28;19975;-43
2022/10/20 03:23:20;;;;;;;;;;;20.50;51.90;;;;;;8366021;28;20377;-43
2022/10/20 03:27:20;;;;;;;;;;;20.50;52.00;;;;;;8365246;28;19928;-44
2022/10/20 03:31:21;;;;;;;;;;;20.50;51.90;;;;;;8365962;28;20251;-43
2022/10/20 03:35:21;;;;;;;;;;;20.50;51.90;;;;;;8365483;28;19912;-43
2022/10/20 03:39:22;;;;;;;;;;;20.50;51.90;;;;;;8364758;28;19969;-45
2022/10/20 03:43:22;;;;;;;;;;;20.50;52.00;;;;;;8365359;28;19983;-43
2022/10/20 03:47:23;;;;;;;;;;;20.50;52.00;;;;;;8365054;28;20385;-43
2022/10/20 03:51:23;;;;;;;;;;;20.50;52.00;;;;;;8364290;28;19924;-42
2022/10/20 03:55:23;;;;;;;;;;;20.50;51.90;;;;;;8364680;28;19913;-42
2022/10/20 03:59:24;;;;;;;;;;;20.50;52.00;;;;;;8365256;28;19917;-44
2022/10/20 04:03:24;;;;;;;;;;;20.50;51.90;;;;;;8364227;28;20011;-43
2022/10/20 04:07:25;;;;;;;;;;;20.50;51.90;;;;;;8364157;28;19928;-43
2022/10/20 04:11:25;;;;;;;;;;;20.60;51.90;;;;;;8364254;28;19923;-43
2022/10/20 04:15:26;;;;;;;;;;;20.50;51.90;;;;;;8363506;28;19925;-43
2022/10/20 04:19:26;;;;;;;;;;;20.60;51.90;;;;;;8363980;28;19996;-42
2022/10/20 04:23:27;;;;;;;;;;;20.50;51.90;;;;;;8364257;28;20285;-43
2022/10/20 04:27:27;;;;;;;;;;;20.60;52.00;;;;;;8363350;28;19921;-45
2022/10/20 04:31:28;;;;;;;;;;;20.60;51.90;;;;;;8363626;28;19917;-43
2022/10/20 04:35:28;;;;;;;;;;;20.50;51.90;;;;;;8363749;28;19919;-44
2022/10/20 04:39:29;;;;;;;;;;;20.50;51.90;;;;;;8363199;28;19921;-44
2022/10/20 04:43:30;;;;;;;;;;;20.60;52.00;;;;;;8363600;28;19924;-44
2022/10/20 04:47:31;;;;;;;;;;;20.50;51.90;;;;;;8363523;28;19924;-44
2022/10/20 04:51:32;;;;;;;;;;;20.50;51.90;;;;;;8362889;28;19916;-43
2022/10/20 04:55:32;;;;;;;;;;;20.50;52.00;;;;;;8363244;28;20349;-43
2022/10/20 04:59:32;;;;;;;;;;;20.50;51.90;;;;;;8363217;28;20366;-43
2022/10/20 05:03:34;;;;;;;;;;;20.50;52.00;;;;;;8363063;28;20320;-44
2022/10/20 05:07:34;;;;;;;;;;;20.50;51.90;;;;;;8363230;28;19925;-43
2022/10/20 05:11:35;;;;;;;;;;;20.50;52.00;;;;;;8363196;28;19913;-43
2022/10/20 05:15:36;;;;;;;;;;;20.50;52.00;;;;;;8362540;28;20329;-44
2022/10/20 05:19:36;;;;;;;;;;;20.50;52.00;;;;;;8362928;28;19919;-43
2022/10/20 05:23:38;;;;;;;;;;;20.50;52.00;;;;;;8363201;28;19917;-44
2022/10/20 05:27:38;;;;;;;;;;;20.50;52.00;;;;;;8368797;28;19975;-43
2022/10/20 05:31:40;;;;;;;;;;;20.50;52.00;;;;;;8369128;28;19917;-44
2022/10/20 05:35:40;;;;;;;;;;;20.50;52.10;;;;;;8369158;28;20012;-44
2022/10/20 05:39:42;;;;;;;;;;;20.50;52.00;;;;;;8368442;28;19916;-43
2022/10/20 05:43:46;;;;;;;;;;;20.50;52.00;;;;;;8369484;28;20013;-46
2022/10/20 05:47:46;;;;;;;;;;;20.40;52.00;;;;;;8368288;28;19933;-42
2022/10/20 05:51:47;;;;;;;;;;;20.50;52.00;;;;;;8368404;28;20298;-45
2022/10/20 05:55:47;;;;;;;;;;;20.40;52.00;;;;;;8368527;28;19920;-45
2022/10/20 05:59:48;;;;;;;;;;;20.40;52.00;;;;;;8367888;28;20003;-43
2022/10/20 06:03:55;;;;;;;;;;;20.40;52.00;;;;;;8368513;28;20290;-42
2022/10/20 06:07:56;;;;;;;;;;;20.40;52.00;;;;;;8367954;28;19928;-43
2022/10/20 06:11:57;;;;;;;;;;;20.50;52.00;;;;;;8367619;28;20000;-43
2022/10/20 06:16:04;;;;;;;;;;;20.50;52.00;;;;;;8367808;28;19921;-43
2022/10/20 06:20:05;;;;;;;;;;;20.50;52.00;;;;;;8367618;28;19913;-43
2022/10/20 06:24:06;;;;;;;;;;;20.50;52.00;;;;;;8367777;28;22440;-43
2022/10/20 06:28:06;;;;;;;;;;;20.50;51.90;;;;;;8367217;28;20301;-43
2022/10/20 06:32:06;;;;;;;;;;;20.50;51.90;;;;;;8367277;28;19917;-43
2022/10/20 06:36:07;;;;;;;;;;;20.50;52.00;;;;;;8366774;28;20351;-43
2022/10/20 06:40:08;;;;;;;;;;;20.50;52.00;;;;;;8367234;28;20278;-42
2022/10/20 06:44:08;;;;;;;;;;;20.50;52.00;;;;;;8367164;28;19913;-43
2022/10/20 06:48:09;;;;;;;;;;;20.40;51.90;;;;;;8366412;28;19986;-43
2022/10/20 06:52:10;;;;;;;;;;;20.40;51.90;;;;;;8366967;28;19924;-43
2022/10/20 06:56:12;;;;;;;;;;;20.40;51.90;;;;;;8366831;28;19917;-43
2022/10/20 07:00:13;;;;;;;;;;;20.40;52.00;;;;;;8366351;28;19920;-43
2022/10/20 07:04:14;;;;;;;;;;;20.50;52.00;;;;;;8366446;28;20012;-45
2022/10/20 07:08:14;;;;;;;;;;;20.40;51.90;;;;;;8366444;28;20408;-43
2022/10/20 07:12:15;;;;;;;;;;;20.50;52.00;;;;;;8354579;28;20011;-43
2022/10/20 07:16:16;;;;;;;;;;;20.50;51.90;;;;;;8366233;28;19920;-44
2022/10/20 07:20:17;;;;;;;;;;;20.50;52.00;;;;;;8366094;28;19916;-43
2022/10/20 07:24:17;;;;;;;;;;;20.50;51.90;;;;;;8365398;28;20282;-43
2022/10/20 07:28:20;;;;;;;;;;;20.50;51.90;;;;;;8365405;28;20393;-43
2022/10/20 07:32:21;;;;;;;;;;;20.50;51.90;;;;;;8365685;28;19919;-43
2022/10/20 07:36:25;;;;;;;;;;;20.50;51.90;;;;;;8364928;28;19917;-44
2022/10/20 07:40:25;;;;;;;;;;;20.50;51.90;;;;;;8365497;28;20380;-44
2022/10/20 07:44:26;;;;;;;;;;;20.50;51.90;;;;;;8365248;28;20015;-43
2022/10/20 07:48:26;;;;;;;;;;;20.50;51.80;;;;;;8363944;28;19931;-43
2022/10/20 07:52:29;;;;;;;;;;;20.50;51.90;;;;;;8364890;28;19917;-43
2022/10/20 07:56:31;;;;;;;;;;;20.50;51.90;;;;;;8364761;28;19923;-44
2022/10/20 08:00:31;;;;;;;;;;;20.50;51.90;;;;;;8364152;28;19948;-43
2022/10/20 08:04:32;;;;;;;;;;;20.50;51.90;;;;;;8364836;28;19920;-43
2022/10/20 08:08:32;;;;;;;;;;;20.50;51.90;;;;;;8364343;28;19929;-43
2022/10/20 08:12:33;;;;;;;;;;;20.50;51.90;;;;;;8363707;28;19917;-43
2022/10/20 08:16:33;;;;;;;;;;;20.50;52.40;;;;;;8364303;28;19992;-43
2022/10/20 08:20:34;;;;;;;;;;;20.50;51.90;;;;;;8364083;28;20390;-42
2022/10/20 08:24:35;;;;;;;;;;;20.50;51.90;;;;;;8363236;28;20337;-43
2022/10/20 08:28:35;;;;;;;;;;;20.50;51.90;;;;;;8363820;28;19925;-45
2022/10/20 08:32:36;;;;;;;;;;;20.50;51.90;;;;;;8363834;28;19923;-45
2022/10/20 08:36:36;;;;;;;;;;;20.50;51.90;;;;;;8363128;28;20377;-44
2022/10/20 08:40:39;;;;;;;;;;;20.50;51.90;;;;;;8364043;28;19916;-44
2022/10/20 08:44:42;;;;;;;;;;;20.50;51.90;;;;;;8363398;28;19970;-43
2022/10/20 08:48:44;;;;;;;;;;;20.50;51.90;;;;;;8363285;28;19932;-43
2022/10/20 08:52:45;;;;;;;;;;;20.50;51.90;;;;;;8363459;28;19913;-43
2022/10/20 08:56:46;;;;;;;;;;;20.50;51.80;;;;;;8363294;28;20374;-44
2022/10/20 09:00:47;;;;;;;;;;;20.60;51.90;;;;;;8366932;28;19917;-43
2022/10/20 09:04:53;;;;;;;;;;;20.60;51.80;;;;;;8370064;28;19920;-43
2022/10/20 09:08:54;;;;;;;;;;;20.60;51.80;;;;;;8369240;28;19948;-45
2022/10/20 09:12:55;;;;;;;;;;;20.60;51.80;;;;;;8369580;28;19929;-44
2022/10/20 09:16:56;;;;;;;;;;;20.60;51.80;;;;;;8369653;28;20324;-44
2022/10/20 09:20:58;;;;;;;;;;;20.60;51.80;;;;;;8369360;28;19921;-43
2022/10/20 09:24:59;;;;;;;;;;;20.60;51.80;;;;;;8369705;28;19923;-42
2022/10/20 09:29:05;;;;;;;;;;;20.60;51.70;;;;;;8369118;28;20377;-42
2022/10/20 09:33:19;;;;;;;;;;;20.60;51.70;;;;;;8368615;28;19920;-42
2022/10/20 09:37:20;;;;;;;;;;;20.60;51.70;;;;;;8368955;28;19920;-43
2022/10/20 09:41:23;;;;;;;;;;;20.60;51.70;;;;;;8368983;28;20375;-42
2022/10/20 09:45:27;;;;;;;;;;;20.60;51.70;;;;;;8368507;28;19917;-42
2022/10/20 09:49:31;;;;;;;;;;;20.70;52.20;;;;;;8368552;28;19925;-43
2022/10/20 09:53:33;;;;;;;;;;;20.60;51.60;;;;;;8368195;28;19913;-43
2022/10/20 09:57:33;;;;;;;;;;;20.60;51.60;;;;;;8367828;28;19939;-43
2022/10/20 10:01:50;;;;;;;;;;;20.60;51.70;;;;;;8368294;28;19920;-44
2022/10/20 10:05:52;;;;;;;;;;;20.70;51.70;;;;;;8367984;28;20290;-43
2022/10/20 10:10:00;;;;;;;;;;;20.70;51.70;;;;;;8367703;28;19932;-42
2022/10/20 10:14:01;;;;;;;;;;;20.70;51.70;;;;;;8357312;28;19924;-44
2022/10/20 10:18:13;;;;;;;;;;;20.70;51.70;;;;;;8367398;28;20327;-43
2022/10/20 10:22:14;;;;;;;;;;;20.70;51.70;;;;;;8367713;28;19995;-43
2022/10/20 10:26:33;;;;;;;;;;;20.70;51.60;;;;;;8367828;28;19917;-43
2022/10/20 10:30:34;;;;;;;;;;;20.70;51.70;;;;;;8367134;28;19932;-45
2022/10/20 10:34:41;;;;;;;;;;;20.70;51.70;;;;;;8367188;28;19970;-44
2022/10/20 10:38:41;;;;;;;;;;;20.70;51.60;;;;;;8367311;28;20454;-43
2022/10/20 10:42:45;;;;;;;;;;;20.70;51.60;;;;;;8366700;28;20019;-43
2022/10/20 10:47:06;;;;;;;;;;;20.70;51.60;;;;;;8366883;28;19966;-44
2022/10/20 10:51:24;;;;;;;;;;;20.70;51.60;;;;;;8368426;28;19940;-42
2022/10/20 10:55:31;;;;;;;;;;;20.70;51.60;;;;;;8367039;28;19917;-43
2022/10/20 10:59:33;;;;;;;;;;;20.70;51.60;;;;;;8366503;28;20289;-44
2022/10/20 11:03:52;;;;;;;;;;;20.80;51.60;;;;;;8365808;28;19921;-43
2022/10/20 11:08:01;;;;;;;;;;;20.70;51.60;;;;;;8366266;28;20293;-45
2022/10/20 11:12:17;;;;;;;;;;;20.70;51.60;;;;;;8365651;28;19924;-42
2022/10/20 11:16:18;;;;;;;;;;;20.80;51.60;;;;;;8366547;28;19948;-44
2022/10/20 11:20:38;;;;;;;;;;;20.80;51.60;;;;;;8365855;28;19924;-44
2022/10/20 11:24:39;;;;;;;;;;;20.80;51.60;;;;;;8364422;28;19916;-44
2022/10/20 11:28:52;;;;;;;;;;;20.80;51.60;;;;;;8365542;28;19921;-43
2022/10/20 11:33:15;;;;;;;;;;;20.80;51.60;;;;;;8365118;28;20414;-44
2022/10/20 11:37:27;;;;;;;;;;;20.80;51.60;;;;;;8365679;28;19913;-43
2022/10/20 11:41:38;;;;;;;;;;;20.80;52.20;;;;;;8365629;28;20289;-44
2022/10/20 11:46:14;;;;;;;;;;;20.80;51.60;;;;;;8364800;28;19924;-42
2022/10/20 11:50:16;;;;;;;;;;;20.80;51.70;;;;;;8338107;28;19925;-43
2022/10/20 11:54:35;;;;;;;;;;;20.80;51.70;;;;;;8364292;28;20369;-43
2022/10/20 11:58:39;;;;;;;;;;;20.80;51.60;;;;;;8364831;28;19916;-43
2022/10/20 12:02:43;;;;;;;;;;;20.80;51.60;;;;;;8364476;28;19917;-43
2022/10/20 12:06:46;;;;;;;;;;;20.80;51.50;;;;;;8364196;28;19921;-44
2022/10/20 12:10:52;;;;;;;;;;;20.90;51.60;;;;;;8364490;28;20305;-43
2022/10/20 12:14:58;;;;;;;;;;;20.80;51.50;;;;;;8395298;28;23283;-44
2022/10/20 12:19:14;;;;;;;;;;;20.90;51.50;;;;;;8364355;28;20401;-43
2022/10/20 12:23:33;;;;;;;;;;;20.90;51.50;;;;;;8364187;28;19916;-44
2022/10/20 12:27:33;;;;;;;;;;;20.90;51.50;;;;;;8363387;28;19967;-45
2022/10/20 12:31:52;;;;;;;;;;;20.90;51.50;;;;;;8364192;28;19913;-44
2022/10/20 12:36:12;;;;;;;;;;;20.90;51.60;;;;;;8363202;28;19924;-43
2022/10/20 12:40:33;;;;;;;;;;;20.90;51.50;;;;;;8363920;28;19921;-43
2022/10/20 12:44:43;;;;;;;;;;;20.90;51.50;;;;;;8363078;28;19924;-44
2022/10/20 12:48:44;;;;;;;;;;;20.90;51.50;;;;;;8362961;28;19932;-43
2022/10/20 12:52:45;;;;;;;;;;;20.90;51.60;;;;;;8363588;28;19925;-45
2022/10/20 12:56:46;;;;;;;;;;;20.90;51.60;;;;;;8363552;28;20376;-42
2022/10/20 13:00:48;;;;;;;;;;;20.90;51.60;;;;;;8363173;28;20327;-43
2022/10/20 13:04:51;;;;;;;;;;;20.90;51.50;;;;;;8363066;28;19925;-43
2022/10/20 13:09:03;;;;;;;;;;;20.90;51.60;;;;;;8361699;28;19920;-43
2022/10/20 13:13:04;;;;;;;;;;;20.90;51.60;;;;;;8363043;28;19917;-43
2022/10/20 13:17:11;;;;;;;;;;;20.90;51.60;;;;;;8363332;28;20331;-44
2022/10/20 13:21:21;;;;;;;;;;;20.90;51.60;;;;;;8362588;28;20425;-43
2022/10/20 13:25:31;;;;;;;;;;;20.90;51.60;;;;;;8363115;28;19916;-43
2022/10/20 13:29:35;;;;;;;;;;;20.90;51.60;;;;;;8362659;28;19929;-44
2022/10/20 13:33:38;;;;;;;;;;;20.90;51.70;;;;;;8343723;28;20291;-44
2022/10/20 13:37:43;;;;;;;;;;;20.80;51.60;;;;;;8362964;28;19913;-44
2022/10/20 13:41:47;;;;;;;;;;;20.90;51.60;;;;;;8362757;28;19921;-43
2022/10/20 13:45:47;;;;;;;;;;;20.90;51.60;;;;;;8363638;28;19921;-43
2022/10/20 13:49:59;;;;;;;;;;;20.90;51.70;;;;;;8368373;28;19925;-47
2022/10/20 13:54:00;;;;;;;;;;;20.90;51.70;;;;;;8367984;28;19916;-43
2022/10/20 13:58:07;;;;;;;;;;;20.90;51.70;;;;;;8368565;28;20362;-43
2022/10/20 14:02:25;;;;;;;;;;;20.90;51.70;;;;;;8368510;28;20316;-43
2022/10/20 14:06:25;;;;;;;;;;;20.90;51.70;;;;;;8367768;28;20298;-44
2022/10/20 14:10:37;;;;;;;;;;;20.90;51.60;;;;;;8367998;28;20058;-42
2022/10/20 14:14:41;;;;;;;;;;;20.90;51.60;;;;;;8367922;28;20008;-46
2022/10/20 14:18:42;;;;;;;;;;;20.90;51.60;;;;;;8367346;28;19924;-44
2022/10/20 14:22:43;;;;;;;;;;;20.90;51.60;;;;;;8368204;28;20378;-43
2022/10/20 14:26:44;;;;;;;;;;;20.90;51.70;;;;;;8367532;28;19961;-42
2022/10/20 14:30:46;;;;;;;;;;;20.90;51.60;;;;;;8366870;28;19929;-43
2022/10/20 14:34:54;;;;;;;;;;;20.90;51.60;;;;;;8367419;28;20371;-44
2022/10/20 14:38:59;;;;;;;;;;;20.90;51.60;;;;;;8366704;28;19921;-44
2022/10/20 14:43:02;;;;;;;;;;;20.90;51.70;;;;;;8367323;28;19960;-44
2022/10/20 14:47:03;;;;;;;;;;;20.90;51.70;;;;;;8367245;28;20010;-44
2022/10/20 14:51:22;;;;;;;;;;;20.90;51.70;;;;;;8366139;28;19961;-44
2022/10/20 14:55:30;;;;;;;;;;;20.90;51.70;;;;;;8366687;28;19924;-44
2022/10/20 14:59:32;;;;;;;;;;;20.90;51.70;;;;;;8365507;28;19916;-42
2022/10/20 15:03:34;;;;;;;;;;;20.90;51.70;;;;;;8365810;28;19920;-43
2022/10/20 15:07:35;;;;;;;;;;;20.90;52.30;;;;;;8366459;28;20374;-43
2022/10/20 15:11:37;;;;;;;;;;;20.90;51.70;;;;;;8366018;28;19923;-43
2022/10/20 15:15:38;;;;;;;;;;;20.90;51.70;;;;;;8365567;28;19920;-43
2022/10/20 15:19:38;;;;;;;;;;;20.90;51.70;;;;;;8366090;28;20381;-42
2022/10/20 15:23:39;;;;;;;;;;;20.90;51.70;;;;;;8365724;28;20016;-43
2022/10/20 15:27:39;;;;;;;;;;;20.90;51.70;;;;;;8365459;28;19917;-42
2022/10/20 15:31:40;;;;;;;;;;;20.90;51.70;;;;;;8365474;28;19917;-43
2022/10/20 15:35:44;;;;;;;;;;;20.90;51.80;;;;;;8365343;28;19913;-43
2022/10/20 15:39:44;;;;;;;;;;;20.90;51.70;;;;;;8364753;28;19917;-43
2022/10/20 15:43:45;;;;;;;;;;;20.90;51.80;;;;;;8365329;28;19920;-42
2022/10/20 15:47:46;;;;;;;;;;;20.90;51.70;;;;;;8365214;28;19921;-44
2022/10/20 15:51:47;;;;;;;;;;;20.90;51.70;;;;;;8364429;28;19920;-44
2022/10/20 15:55:47;;;;;;;;;;;20.90;51.80;;;;;;8364764;28;19944;-43
2022/10/20 15:59:48;;;;;;;;;;;20.90;51.80;;;;;;8364199;28;20262;-44
2022/10/20 16:03:49;;;;;;;;;;;20.90;51.80;;;;;;8364138;28;20495;-43
2022/10/20 16:07:53;;;;;;;;;;;20.90;51.80;;;;;;8359095;28;20309;-44
2022/10/20 16:11:54;;;;;;;;;;;20.90;51.80;;;;;;8360644;28;20296;-43
2022/10/20 16:15:54;;;;;;;;;;;20.90;51.80;;;;;;8360384;28;19924;-44
2022/10/20 16:19:54;;;;;;;;;;;20.90;51.90;;;;;;8349231;28;19924;-45
2022/10/20 16:23:55;;;;;;;;;;;20.90;51.90;;;;;;8362935;28;19925;-45
2022/10/20 16:27:55;;;;;;;;;;;20.90;51.90;;;;;;8363540;28;19928;-44
2022/10/20 16:31:57;;;;;;;;;;;20.90;51.90;;;;;;8363457;28;20356;-43
2022/10/20 16:35:59;;;;;;;;;;;20.90;51.90;;;;;;8362728;28;19959;-44
2022/10/20 16:40:00;;;;;;;;;;;20.90;51.90;;;;;;8354558;28;19980;-44
2022/10/20 16:44:00;;;;;;;;;;;20.90;51.90;;;;;;8330665;28;19979;-45
2022/10/20 16:48:01;;;;;;;;;;;20.90;51.90;;;;;;8362970;28;19925;-43
2022/10/20 16:52:02;;;;;;;;;;;20.80;51.90;;;;;;8363231;28;19916;-44
2022/10/20 16:56:02;;;;;;;;;;;20.90;51.90;;;;;;8363081;28;19913;-45
2022/10/20 17:00:06;;;;;;;;;;;20.90;52.00;;;;;;8362780;28;19917;-44
2022/10/20 17:04:09;;;;;;;;;;;20.90;51.90;;;;;;8361559;28;19928;-42
2022/10/20 17:08:09;;;;;;;;;;;20.90;51.90;;;;;;8363249;28;20039;-44
2022/10/20 17:12:10;;;;;;;;;;;20.90;51.90;;;;;;8362451;28;19917;-45
2022/10/20 17:16:12;;;;;;;;;;;20.80;51.90;;;;;;8349326;28;20000;-43
2022/10/20 17:20:13;;;;;;;;;;;20.90;51.90;;;;;;8363608;28;19955;-43
2022/10/20 17:24:13;;;;;;;;;;;20.90;51.90;;;;;;8369302;28;20267;-42
2022/10/20 17:28:14;;;;;;;;;;;20.80;51.90;;;;;;8369887;28;19925;-44
2022/10/20 17:32:14;;;;;;;;;;;20.90;52.00;;;;;;8369408;28;19917;-43
2022/10/20 17:36:14;;;;;;;;;;;20.80;52.00;;;;;;8360411;28;19921;-44
2022/10/20 17:40:15;;;;;;;;;;;20.80;52.00;;;;;;8369174;28;19960;-44
2022/10/20 17:44:15;;;;;;;;;;;20.80;52.00;;;;;;8365293;28;19923;-45
2022/10/20 17:48:16;;;;;;;;;;;20.80;52.00;;;;;;8364227;28;19931;-44
2022/10/20 17:52:16;;;;;;;;;;;20.80;52.00;;;;;;8367657;28;19917;-44
2022/10/20 17:56:17;;;;;;;;;;;20.80;52.00;;;;;;8362253;28;19921;-46
2022/10/20 18:00:17;;;;;;;;;;;20.90;52.10;;;;;;8363205;28;20385;-44
2022/10/20 18:04:18;;;;;;;;;;;20.80;52.00;;;;;;8363490;28;19920;-46
2022/10/20 18:08:18;;;;;;;;;;;20.80;52.00;;;;;;8383849;28;19925;-44
2022/10/20 18:12:18;;;;;;;;;;;20.80;52.00;;;;;;8365918;28;19917;-44
2022/10/20 18:16:19;;;;;;;;;;;20.90;52.10;;;;;;8362564;28;19990;-44
2022/10/20 18:20:20;;;;;;;;;;;20.80;52.10;;;;;;8365497;28;19978;-45
2022/10/20 18:24:20;;;;;;;;;;;20.90;52.10;;;;;;8366553;28;20023;-46
2022/10/20 18:28:22;;;;;;;;;;;20.90;52.10;;;;;;8351295;28;20279;-45
2022/10/20 18:32:22;;;;;;;;;;;20.90;52.10;;;;;;8363004;28;19921;-45
2022/10/20 18:36:23;;;;;;;;;;;20.80;52.10;;;;;;8366084;28;20007;-45
2022/10/20 18:40:24;;;;;;;;;;;20.80;52.10;;;;;;8357698;28;20345;-45
2022/10/20 18:44:25;;;;;;;;;;;20.80;52.10;;;;;;8350649;28;19920;-44
2022/10/20 18:48:26;;;;;;;;;;;20.80;52.10;;;;;;8351655;28;19924;-45
2022/10/20 18:52:26;;;;;;;;;;;20.80;52.10;;;;;;8349903;28;20055;-44
2022/10/20 18:56:28;;;;;;;;;;;20.80;52.10;;;;;;8366385;28;20378;-43
2022/10/20 19:00:29;;;;;;;;;;;20.80;52.10;;;;;;8355982;28;19977;-43
2022/10/20 19:04:30;;;;;;;;;;;20.80;52.10;;;;;;8353114;28;19932;-46
2022/10/20 19:08:30;;;;;;;;;;;20.80;52.10;;;;;;8362638;28;20374;-44
2022/10/20 19:12:31;;;;;;;;;;;20.80;52.10;;;;;;8365552;28;19917;-44
2022/10/20 19:16:32;;;;;;;;;;;20.80;52.20;;;;;;8366107;28;19924;-45
2022/10/20 19:20:32;;;;;;;;;;;20.80;52.20;;;;;;8364955;28;19917;-43
2022/10/20 19:24:33;;;;;;;;;;;20.80;52.20;;;;;;8365643;28;20317;-44
2022/10/20 19:28:36;;;;;;;;;;;20.80;52.20;;;;;;8365544;28;20382;-44
2022/10/20 19:32:37;;;;;;;;;;;20.80;52.20;;;;;;8364551;28;19989;-44
2022/10/20 19:36:39;;;;;;;;;;;20.80;52.10;;;;;;8365088;28;20000;-45
2022/10/20 19:40:39;;;;;;;;;;;20.80;52.10;;;;;;8365659;28;19971;-44
2022/10/20 19:44:40;;;;;;;;;;;20.80;52.20;;;;;;8365154;28;19994;-45
2022/10/20 19:48:40;;;;;;;;;;;20.80;52.20;;;;;;8364469;28;19948;-44
2022/10/20 19:52:41;;;;;;;;;;;20.80;52.20;;;;;;8364933;28;19978;-46
2022/10/20 19:56:41;;;;;;;;;;;20.80;52.20;;;;;;8364823;28;20007;-46
2022/10/20 20:00:43;;;;;;;;;;;20.80;52.20;;;;;;8364315;28;19936;-47
2022/10/20 20:04:43;;;;;;;;;;;20.80;52.20;;;;;;8364835;28;19974;-44
2022/10/20 20:08:44;;;;;;;;;;;20.80;52.30;;;;;;8364456;28;19925;-46
2022/10/20 20:12:45;;;;;;;;;;;20.80;52.30;;;;;;8363988;28;20000;-47
2022/10/20 20:16:45;;;;;;;;;;;20.80;52.20;;;;;;8364457;28;19917;-45
2022/10/20 20:20:47;;;;;;;;;;;20.80;52.20;;;;;;8362797;28;20000;-45
2022/10/20 20:24:47;;;;;;;;;;;20.80;52.20;;;;;;8364170;28;20524;-45
2022/10/20 20:28:49;;;;;;;;;;;20.80;52.30;;;;;;8363794;28;19929;-43
2022/10/20 20:32:50;;;;;;;;;;;20.80;52.20;;;;;;8363462;28;19923;-44
2022/10/20 20:36:50;;;;;;;;;;;20.80;52.30;;;;;;8363594;28;20289;-45
2022/10/20 20:40:51;;;;;;;;;;;20.80;52.30;;;;;;8363614;28;19925;-44
2022/10/20 20:44:52;;;;;;;;;;;20.80;52.30;;;;;;8363337;28;19913;-45
2022/10/20 20:48:52;;;;;;;;;;;20.80;52.30;;;;;;8363798;28;19963;-44
2022/10/20 20:52:53;;;;;;;;;;;20.80;52.30;;;;;;8363487;28;19924;-44
2022/10/20 20:56:53;;;;;;;;;;;20.80;52.30;;;;;;8362830;28;19917;-45
2022/10/20 21:01:13;;;;;;;;;;;20.80;52.30;;;;;;8363331;28;19913;-44
2022/10/20 21:05:13;;;;;;;;;;;20.80;52.30;;;;;;8363558;28;19927;-44
2022/10/20 21:09:14;;;;;;;;;;;20.80;52.30;;;;;;8362622;28;19984;-44
2022/10/20 21:13:14;;;;;;;;;;;20.80;52.30;;;;;;8363097;28;19944;-44
2022/10/20 21:17:15;;;;;;;;;;;20.80;52.30;;;;;;8363045;28;19916;-44
2022/10/20 21:21:16;;;;;;;;;;;20.80;52.30;;;;;;8362853;28;19920;-44
2022/10/20 21:25:17;;;;;;;;;;;20.80;52.30;;;;;;8363061;28;19913;-43
2022/10/20 21:29:17;;;;;;;;;;;20.80;52.30;;;;;;8362851;28;19963;-44
2022/10/20 21:33:18;;;;;;;;;;;20.80;52.30;;;;;;8362337;28;19924;-44
2022/10/20 21:37:18;;;;;;;;;;;20.80;52.30;;;;;;8362867;28;20011;-44
2022/10/20 21:41:20;;;;;;;;;;;20.80;52.30;;;;;;8362587;28;19916;-44
2022/10/20 21:45:20;;;;;;;;;;;20.80;52.30;;;;;;8362416;28;20305;-43
2022/10/20 21:49:24;;;;;;;;;;;20.80;52.30;;;;;;8362508;28;19957;-43
2022/10/20 21:53:24;;;;;;;;;;;20.80;52.40;;;;;;8361151;28;19931;-43
2022/10/20 21:57:24;;;;;;;;;;;20.80;52.40;;;;;;8361903;28;20012;-43
2022/10/20 22:01:25;;;;;;;;;;;20.80;52.40;;;;;;8361652;28;19940;-43
2022/10/20 22:05:25;;;;;;;;;;;20.80;52.40;;;;;;8361357;28;19927;-43
2022/10/20 22:09:26;;;;;;;;;;;20.80;52.40;;;;;;8367457;28;20007;-44
2022/10/20 22:13:27;;;;;;;;;;;20.80;52.40;;;;;;8368077;28;19970;-43
2022/10/20 22:17:27;;;;;;;;;;;20.80;52.40;;;;;;8368069;28;19928;-43
2022/10/20 22:21:28;;;;;;;;;;;20.80;52.40;;;;;;8367454;28;19964;-45
2022/10/20 22:25:29;;;;;;;;;;;20.80;52.30;;;;;;8367929;28;20369;-45
2022/10/20 22:29:29;;;;;;;;;;;20.80;52.40;;;;;;8367691;28;19990;-44
2022/10/20 22:33:30;;;;;;;;;;;20.80;52.40;;;;;;8367025;28;20287;-43
2022/10/20 22:37:30;;;;;;;;;;;20.70;52.30;;;;;;8367379;28;19917;-43
2022/10/20 22:41:31;;;;;;;;;;;20.80;52.90;;;;;;8367251;28;19912;-43
2022/10/20 22:45:31;;;;;;;;;;;20.70;52.30;;;;;;8366842;28;19912;-43
2022/10/20 22:49:32;;;;;;;;;;;20.70;52.30;;;;;;8367316;28;20302;-44
2022/10/20 22:53:32;;;;;;;;;;;20.80;52.40;;;;;;8366826;28;19940;-44
2022/10/20 22:57:33;;;;;;;;;;;20.70;52.30;;;;;;8366361;28;20424;-44
2022/10/20 23:01:33;;;;;;;;;;;20.70;52.40;;;;;;8366489;28;19917;-45
2022/10/20 23:05:34;;;;;;;;;;;20.70;52.40;;;;;;8366524;28;19920;-43
2022/10/20 23:09:35;;;;;;;;;;;20.70;52.40;;;;;;8365835;28;20003;-43
2022/10/20 23:13:35;;;;;;;;;;;20.70;52.40;;;;;;8366217;28;20332;-45
2022/10/20 23:17:36;;;;;;;;;;;20.70;52.40;;;;;;8365010;28;20306;-44
2022/10/20 23:21:36;;;;;;;;;;;20.70;52.40;;;;;;8365513;28;19916;-44
2022/10/20 23:25:40;;;;;;;;;;;20.70;52.50;;;;;;8366167;28;19916;-44
2022/10/20 23:29:41;;;;;;;;;;;20.70;52.40;;;;;;8365544;28;19925;-45